Aérodrome :
LOGIN :

S'inscrire | Disclaimer

   EN    FR    IT 

 










Légende :    VFR   VFR Marginal   IFR   IFR Intensif   IFR Très Intensif
Visi : 
Plafond : 
>= 8 km
>= 3000ft
5 à 8 km
1000 à 3000 ft
1500m à 5 km
500 à 1000 ft
800 à 1500m
200 à 500 ft
< 800m
< 200 ft
Symboles :   Orages  Brouillard  Fortes neiges  Fortes précipitations  Vent > 20 kt
SIGMETs :   Divers  Orages  Givrage  Turbulence  Onde Orograph.  Cendres Volcan.







- Altitude de l'aérodrome : 489 ft
- Code IATA : GDN


EPGD - Gdansk

DERNIER METAR :
  • 190300Z 21013KT 170V230 9000 SHRA BKN057CB 18/17 Q1008

METARs EXPIRÉS :
  • 190230Z 22015KT 9999 -SHRA FEW003 SCT019 SCT057CB 18/17 Q1008
  • 190200Z 21013KT 5000 SHRA BR FEW003 SCT057CB 19/17 Q1008
  • 190130Z 21009KT 180V240 6000 -SHRA FEW007 FEW057CB 19/18 Q1008
  • 190100Z 24013KT 190V270 1100 R29/1700D TSRA FEW001 BKN047CB 18/18 Q1009
  • 190030Z VRB02KT 5000 -SHRA BR FEW007 SCT057CB 19/18 Q1008

TAF TAF EPGD
Valide du 19 à 00h jusqu'au 20 à 00h UTC


182330Z 1900/1924 13007KT 8000 SCT040
TEMPO 1900/1910 4000 SHRA BKN030CB
PROB40
TEMPO 1901/1906 2000 TSRA BKN005 BKN014CB
BECMG 1902/1904 26012KT
Pas de NOTAMs connus pour ce terrain.



MET'MAP, la Météo Aéronautique d'un coup d'oeil ! - Copyright ORBIFLY Décembre 2007 - Disclaimer

ORBIFLY MET'MAP TEAM :

Programmation & Développement : Alexandra Zaïnal
Conception & Développement : Baudouin d'Aumeries
Co-Programmation & Développement : Marc-Olivier Méhu
Soutien technique & logistique : Manuel Goepfert

Contact : metmap@orbifly.com




SOURCES & CREDITS :

   NOAA